Time;durP1;ratioP1;P1;durP2;ratioP2;P2;SDS_P1;SDS_P2;PMS_P1;PMS_P2;Temp;Humidity;BMP_temperature;BMP_pressure;BME280_temperature;BME280_humidity;BME280_pressure;Samples;Min_cycle;Max_cycle;Signal;HPM_P1;HPM_P2
2023/08/02 00:01:31;;;;;;;3.00;0.47;;;;;;;19.17;100.00;97581.34;7394093;19;20019;-53
2023/08/02 00:03:57;;;;;;;0.65;0.20;;;;;;;18.87;100.00;97570.56;7395399;19;20014;-52
2023/08/02 00:06:23;;;;;;;1.92;0.75;;;;;;;18.45;100.00;97573.59;7396361;19;20018;-53
2023/08/02 00:08:49;;;;;;;1.85;0.20;;;;;;;18.58;100.00;97559.13;7397161;19;20078;-54
2023/08/02 00:11:16;;;;;;;0.80;0.25;;;;;;;19.12;100.00;97551.34;7393997;19;20471;-53
2023/08/02 00:13:42;;;;;;;0.50;0.25;;;;;;;18.45;100.00;97544.69;7393661;19;20022;-54
2023/08/02 00:16:10;;;;;;;1.88;0.30;;;;;;;18.39;100.00;97549.81;7394666;19;20078;-53
2023/08/02 00:18:36;;;;;;;0.25;0.13;;;;;;;18.40;100.00;97523.88;7397457;19;20017;-61
2023/08/02 00:21:02;;;;;;;0.20;0.20;;;;;;;18.37;100.00;97522.22;7395215;19;20015;-61
2023/08/02 00:23:29;;;;;;;1.25;0.30;;;;;;;24.40;100.00;97521.19;7396598;19;20014;-61
2023/08/02 00:25:56;;;;;;;0.38;0.10;;;;;;;19.26;100.00;97527.00;7395992;19;20490;-53
2023/08/02 00:28:22;;;;;;;2.75;0.30;;;;;;;19.44;100.00;97522.75;7396076;19;20022;-54
2023/08/02 00:30:48;;;;;;;0.63;0.45;;;;;;;18.73;100.00;97527.88;7394581;19;20011;-53
2023/08/02 00:33:15;;;;;;;0.25;0.25;;;;;;;18.77;100.00;97507.75;7394096;19;20010;-54
2023/08/02 00:35:46;;;;;;;0.35;0.10;;;;;;;18.46;100.00;97503.88;7393784;19;20010;-53
2023/08/02 00:38:13;;;;;;;0.90;0.28;;;;;;;18.75;100.00;97501.94;7395330;19;20014;-53
2023/08/02 00:40:39;;;;;;;0.63;0.30;;;;;;;22.73;100.00;97500.72;7393208;19;20402;-53
2023/08/02 00:43:06;;;;;;;0.30;0.10;;;;;;;20.29;100.00;97497.88;7393989;19;20007;-53
2023/08/02 00:45:32;;;;;;;0.40;0.10;;;;;;;18.43;100.00;97499.41;7395160;19;20018;-53
2023/08/02 00:47:59;;;;;;;0.10;0.10;;;;;;;19.15;100.00;97485.25;7393909;19;20351;-53
2023/08/02 00:50:31;;;;;;;1.38;0.20;;;;;;;20.18;100.00;97470.22;7392465;19;20014;-53
2023/08/02 00:52:57;;;;;;;0.10;0.10;;;;;;;21.54;100.00;97478.91;7393478;19;20343;-53
2023/08/02 00:55:23;;;;;;;0.47;0.35;;;;;;;19.54;100.00;97481.16;7393105;19;20031;-53
2023/08/02 00:57:50;;;;;;;0.10;0.00;;;;;;;19.80;100.00;97481.56;7392842;19;20010;-53
2023/08/02 01:00:16;;;;;;;0.50;0.20;;;;;;;18.62;100.00;97488.25;7393309;19;20039;-53
2023/08/02 01:02:42;;;;;;;0.40;0.10;;;;;;;20.82;100.00;97452.13;7394517;19;20025;-53
2023/08/02 01:05:09;;;;;;;0.70;0.30;;;;;;;20.29;100.00;97447.00;7393110;19;20462;-61
2023/08/02 01:07:52;;;;;;;0.25;0.25;;;;;;;18.31;100.00;97459.75;7392716;19;20078;-61
2023/08/02 01:10:25;;;;;;;0.45;0.20;;;;;;;18.14;100.00;97460.56;7394970;19;20014;-53
2023/08/02 01:12:54;;;;;;;0.73;0.20;;;;;;;19.12;100.00;97452.59;7393434;19;20006;-53
2023/08/02 01:15:21;;;;;;;0.13;0.08;;;;;;;18.96;100.00;97451.38;7393772;19;20014;-62
2023/08/02 01:17:51;;;;;;;0.10;0.10;;;;;;;18.27;100.00;97427.69;7391470;19;20006;-61
2023/08/02 01:20:17;;;;;;;0.25;0.25;;;;;;;17.99;100.00;97424.16;7393591;19;20010;-61
2023/08/02 01:22:43;;;;;;;0.10;0.10;;;;;;;28.22;100.00;97402.34;7393640;19;20021;-60
2023/08/02 01:25:10;;;;;;;0.20;0.10;;;;;;;30.05;97.16;97398.75;7392374;19;20013;-59
2023/08/02 01:27:56;;;;;;;0.40;0.22;;;;;;;24.89;100.00;97405.72;7392263;19;20019;-59
2023/08/02 01:30:29;;;;;;;0.32;0.15;;;;;;;26.97;100.00;97374.34;7392079;19;20014;-61
2023/08/02 01:32:56;;;;;;;15.07;0.65;;;;;;;19.34;100.00;97375.22;7392743;19;20018;-61
2023/08/02 01:35:23;;;;;;;0.20;0.10;;;;;;;22.45;100.00;97369.22;7391936;19;20031;-61
2023/08/02 01:37:50;;;;;;;0.52;0.40;;;;;;;24.06;100.00;97363.63;7392505;19;20089;-61
2023/08/02 01:40:16;;;;;;;0.10;0.10;;;;;;;22.78;100.00;97356.97;7390879;19;20439;-61
2023/08/02 01:42:42;;;;;;;0.30;0.30;;;;;;;18.58;100.00;97355.44;7392741;19;20011;-61
2023/08/02 01:45:09;;;;;;;1.63;0.28;;;;;;;19.17;100.00;97344.31;7392641;19;20019;-62
2023/08/02 01:47:35;;;;;;;1.77;0.10;;;;;;;18.81;100.00;97336.78;7392317;19;20014;-62
2023/08/02 01:50:01;;;;;;;2.45;0.35;;;;;;;20.04;100.00;97327.91;7390685;19;20013;-61
2023/08/02 01:52:27;;;;;;;0.55;0.10;;;;;;;18.88;100.00;97315.41;7393186;19;20024;-61
2023/08/02 01:54:54;;;;;;;0.40;0.22;;;;;;;18.86;100.00;97315.25;7393135;19;20019;-61
2023/08/02 01:57:20;;;;;;;0.20;0.10;;;;;;;18.98;100.00;97293.56;7388953;19;20078;-62
2023/08/02 01:59:46;;;;;;;0.50;0.28;;;;;;;19.18;100.00;97295.03;7390859;19;20018;-62
2023/08/02 02:02:12;;;;;;;0.10;0.10;;;;;;;18.48;100.00;97289.84;7391370;19;20017;-62
2023/08/02 02:04:39;;;;;;;0.20;0.13;;;;;;;18.82;100.00;97283.91;7390995;19;20101;-62
2023/08/02 02:07:06;;;;;;;0.50;0.20;;;;;;;18.91;100.00;97277.53;7390484;19;20030;-62
2023/08/02 02:09:32;;;;;;;1.25;0.28;;;;;;;18.32;100.00;97277.34;7394582;19;20015;-61
2023/08/02 02:11:58;;;;;;;0.98;0.10;;;;;;;18.52;100.00;97276.03;7391957;19;20031;-61
2023/08/02 02:14:25;;;;;;;1.25;0.40;;;;;;;18.67;100.00;97267.28;7391774;19;20015;-61
2023/08/02 02:16:52;;;;;;;0.30;0.20;;;;;;;21.51;100.00;97253.53;7388608;19;20022;-62
2023/08/02 02:19:18;;;;;;;0.20;0.10;;;;;;;19.48;100.00;97254.88;7390804;19;20014;-61
2023/08/02 02:21:44;;;;;;;0.55;0.20;;;;;;;18.70;100.00;97254.84;7400590;19;20015;-61
2023/08/02 02:24:12;;;;;;;0.20;0.20;;;;;;;20.31;100.00;97232.31;7399107;19;20357;-61
2023/08/02 02:26:38;;;;;;;0.10;0.10;;;;;;;19.86;100.00;97237.00;7401521;19;20360;-62
2023/08/02 02:29:04;;;;;;;2.92;0.10;;;;;;;19.35;100.00;97235.59;7396762;19;20015;-61
2023/08/02 02:31:31;;;;;;;0.25;0.25;;;;;;;18.96;100.00;97227.78;7398337;19;20006;-62
2023/08/02 02:33:57;;;;;;;0.10;0.10;;;;;;;20.22;100.00;97207.69;7398486;19;20014;-62
2023/08/02 02:36:23;;;;;;;0.88;0.38;;;;;;;21.53;100.00;97190.63;7395747;19;20022;-62
2023/08/02 02:38:52;;;;;;;0.50;0.43;;;;;;;21.43;100.00;97184.34;7396793;19;20015;-63
2023/08/02 02:41:18;;;;;;;1.05;0.15;;;;;;;23.34;100.00;97172.81;7396898;19;20014;-62
2023/08/02 02:43:44;;;;;;;0.63;0.43;;;;;;;27.45;100.00;97151.91;7395846;19;20014;-62
2023/08/02 02:46:10;;;;;;;1.13;0.50;;;;;;;27.59;100.00;97143.88;7398401;19;20325;-63
2023/08/02 02:48:37;;;;;;;0.32;0.20;;;;;;;31.09;74.46;97125.81;7398316;19;20017;-62
2023/08/02 02:51:03;;;;;;;0.10;0.10;;;;;;;27.43;85.52;97126.13;7398301;19;20014;-62
2023/08/02 02:53:29;;;;;;;0.20;0.10;;;;;;;22.90;100.00;97127.78;7397976;19;20018;-62
2023/08/02 02:55:56;;;;;;;0.10;0.10;;;;;;;21.45;100.00;97120.06;7397520;19;20015;-61
2023/08/02 02:58:23;;;;;;;0.10;0.10;;;;;;;19.36;100.00;97115.72;7391864;19;20021;-64
2023/08/02 03:00:49;;;;;;;0.40;0.10;;;;;;;19.31;100.00;97104.72;7394277;19;20016;-63
2023/08/02 03:03:15;;;;;;;0.60;0.40;;;;;;;20.02;100.00;97096.09;7395246;19;20449;-63
2023/08/02 03:05:41;;;;;;;1.23;0.15;;;;;;;20.42;100.00;97088.19;7393812;19;20018;-62
2023/08/02 03:08:07;;;;;;;0.20;0.10;;;;;;;20.58;100.00;97082.81;7396164;19;20018;-62
2023/08/02 03:10:34;;;;;;;0.30;0.30;;;;;;;29.84;93.83;97067.38;7393534;19;20366;-63
2023/08/02 03:13:00;;;;;;;0.20;0.20;;;;;;;31.29;85.09;97068.03;7395561;19;20006;-63
2023/08/02 03:15:26;;;;;;;0.17;0.15;;;;;;;31.67;70.05;97059.44;7396382;19;20011;-63
2023/08/02 03:17:52;;;;;;;0.30;0.20;;;;;;;34.56;65.28;97050.53;7394478;19;20021;-63
2023/08/02 03:20:18;;;;;;;1.13;0.05;;;;;;;26.62;91.32;97054.41;7397917;19;20025;-63
2023/08/02 03:22:44;;;;;;;0.10;0.10;;;;;;;23.75;100.00;97037.19;7400440;19;20019;-64
2023/08/02 03:25:10;;;;;;;0.10;0.10;;;;;;;28.08;88.61;97029.78;7398943;19;20015;-64
2023/08/02 03:27:36;;;;;;;0.10;0.00;;;;;;;31.68;78.38;97023.50;7396308;19;20459;-64
2023/08/02 03:30:03;;;;;;;0.65;0.35;;;;;;;33.03;71.27;97006.28;7396550;19;20013;-65
2023/08/02 03:32:29;;;;;;;0.10;0.10;;;;;;;30.38;69.97;97002.75;7397154;19;20014;-64
2023/08/02 03:34:55;;;;;;;0.10;0.10;;;;;;;29.87;67.70;96995.00;7396941;19;20032;-65
2023/08/02 03:37:21;;;;;;;0.40;0.10;;;;;;;36.47;53.30;96993.38;7395408;19;20355;-65
2023/08/02 03:39:48;;;;;;;0.03;0.00;;;;;;;38.26;47.21;96981.03;7395444;19;20502;-66
2023/08/02 03:42:14;;;;;;;0.10;0.10;;;;;;;31.45;52.88;96989.97;7394596;19;20022;-66
2023/08/02 03:44:40;;;;;;;0.10;0.00;;;;;;;22.08;100.00;96991.31;7395994;19;20015;-65
2023/08/02 03:47:06;;;;;;;0.10;0.00;;;;;;;30.85;75.41;96972.91;7395421;19;20015;-64
2023/08/02 03:49:32;;;;;;;0.10;0.00;;;;;;;26.56;85.24;96984.91;7395507;19;20014;-63
2023/08/02 03:51:58;;;;;;;0.38;0.13;;;;;;;21.91;100.00;96982.53;7395523;19;20011;-64
2023/08/02 03:54:24;;;;;;;0.10;0.10;;;;;;;20.15;100.00;96979.69;7395419;19;20026;-64
2023/08/02 03:56:50;;;;;;;0.30;0.30;;;;;;;19.99;100.00;96973.03;7396918;19;20481;-63
2023/08/02 03:59:16;;;;;;;0.05;0.00;;;;;;;20.63;100.00;96965.78;7393896;19;20036;-63
2023/08/02 04:01:43;;;;;;;0.10;0.00;;;;;;;23.39;100.00;96958.63;7395065;19;20014;-63
2023/08/02 04:04:09;;;;;;;0.10;0.00;;;;;;;21.00;100.00;96958.13;7393706;19;20463;-63
2023/08/02 04:06:35;;;;;;;0.10;0.10;;;;;;;20.06;100.00;96958.66;7396179;19;20006;-64
2023/08/02 04:09:01;;;;;;;0.10;0.00;;;;;;;18.71;100.00;96951.84;7395602;19;20010;-63
2023/08/02 04:11:27;;;;;;;0.10;0.10;;;;;;;18.63;100.00;96948.44;7393259;19;20022;-63
2023/08/02 04:13:54;;;;;;;0.00;0.00;;;;;;;24.00;100.00;96937.47;7394833;19;20015;-64
2023/08/02 04:16:20;;;;;;;0.10;0.00;;;;;;;19.52;100.00;96936.16;7394794;19;20030;-64
2023/08/02 04:18:46;;;;;;;0.10;0.00;;;;;;;24.86;100.00;96925.09;7395333;19;20463;-64
2023/08/02 04:21:19;;;;;;;2.38;0.20;;;;;;;37.51;55.51;96916.16;7395945;19;20011;-64
2023/08/02 04:23:48;;;;;;;0.05;0.05;;;;;;;39.68;46.40;96902.25;7399156;19;20019;-64
2023/08/02 04:26:14;;;;;;;0.10;0.00;;;;;;;24.25;100.00;96924.44;7397170;19;20006;-65
2023/08/02 04:28:40;;;;;;;0.00;0.00;;;;;;;22.04;100.00;96919.50;7391815;19;20035;-53
2023/08/02 04:31:06;;;;;;;0.38;0.10;;;;;;;22.21;100.00;96914.09;7392705;19;20010;-53
2023/08/02 04:33:32;;;;;;;1.13;0.10;;;;;;;19.18;100.00;96916.94;7391791;19;20493;-53
2023/08/02 04:35:59;;;;;;;0.25;0.20;;;;;;;19.37;100.00;96919.63;7391984;19;20408;-54
2023/08/02 04:38:26;;;;;;;0.10;0.10;;;;;;;18.26;100.00;96910.66;7394656;19;20015;-53
2023/08/02 04:40:52;;;;;;;0.00;0.00;;;;;;;19.91;100.00;96904.69;7394638;19;20002;-53
2023/08/02 04:43:19;;;;;;;0.10;0.00;;;;;;;19.53;100.00;96903.03;7391100;19;20014;-53
2023/08/02 04:45:45;;;;;;;0.10;0.10;;;;;;;23.20;100.00;96888.78;7393777;19;20038;-53
2023/08/02 04:48:11;;;;;;;0.10;0.00;;;;;;;19.32;100.00;96897.38;7391954;19;20019;-53
2023/08/02 04:50:38;;;;;;;0.10;0.00;;;;;;;18.30;100.00;96894.03;7394435;19;20038;-54
2023/08/02 04:53:05;;;;;;;0.05;0.00;;;;;;;18.06;100.00;96890.97;7394811;19;20007;-54
2023/08/02 04:55:40;;;;;;;0.10;0.00;;;;;;;18.65;100.00;96897.84;7394578;19;20547;-54
2023/08/02 04:58:06;;;;;;;0.10;0.00;;;;;;;18.30;100.00;96888.38;7393048;19;20062;-54
2023/08/02 05:00:32;;;;;;;0.10;0.00;;;;;;;18.23;100.00;96889.28;7392618;19;20459;-54
2023/08/02 05:02:58;;;;;;;0.00;0.00;;;;;;;18.19;100.00;96887.66;7392866;19;20490;-54
2023/08/02 05:05:25;;;;;;;0.00;0.00;;;;;;;18.16;100.00;96880.44;7394792;19;20019;-54
2023/08/02 05:07:51;;;;;;;0.10;0.10;;;;;;;17.99;100.00;96865.81;7391908;19;20351;-54
2023/08/02 05:10:17;;;;;;;0.00;0.00;;;;;;;18.70;100.00;96868.59;7391625;19;20014;-54
2023/08/02 05:12:44;;;;;;;11.77;0.25;;;;;;;18.75;100.00;96865.44;7394736;19;20485;-55
2023/08/02 05:15:10;;;;;;;0.80;0.20;;;;;;;18.69;100.00;96858.69;7391841;19;20007;-54
2023/08/02 05:17:36;;;;;;;0.00;0.00;;;;;;;17.92;100.00;96866.72;7395411;19;20011;-54
2023/08/02 05:20:03;;;;;;;0.00;0.00;;;;;;;17.85;100.00;96856.38;7393697;19;20091;-55
2023/08/02 05:22:31;;;;;;;0.00;0.00;;;;;;;17.89;100.00;96851.78;7394660;19;20034;-55
2023/08/02 05:24:58;;;;;;;0.00;0.00;;;;;;;17.70;100.00;96845.47;7392478;19;20011;-55
2023/08/02 05:30:00;;;;;;;0.00;0.00;;;;;;;18.03;100.00;96838.69;7391529;19;20029;-64
2023/08/02 05:32:26;;;;;;;0.00;0.00;;;;;;;18.09;100.00;96841.16;7392991;19;20014;-66
2023/08/02 05:34:52;;;;;;;0.00;0.00;;;;;;;18.17;100.00;96842.47;7392773;19;20019;-65
2023/08/02 05:37:20;;;;;;;0.00;0.00;;;;;;;18.31;100.00;96827.88;7390754;19;20007;-65
2023/08/02 05:39:46;;;;;;;0.00;0.00;;;;;;;18.29;100.00;96830.53;7394396;19;20007;-67
2023/08/02 05:42:12;;;;;;;0.20;0.20;;;;;;;18.26;100.00;96823.31;7391547;19;20006;-66
2023/08/02 05:44:39;;;;;;;0.00;0.00;;;;;;;18.33;100.00;96814.66;7392122;19;20388;-65
2023/08/02 05:47:06;;;;;;;0.00;0.00;;;;;;;18.34;100.00;96809.75;7392227;19;20451;-65
2023/08/02 05:49:32;;;;;;;0.00;0.00;;;;;;;18.59;100.00;96807.25;7391900;19;20021;-65
2023/08/02 05:51:58;;;;;;;0.00;0.00;;;;;;;18.47;100.00;96809.28;7395781;19;20483;-66
2023/08/02 05:54:24;;;;;;;0.15;0.15;;;;;;;18.55;100.00;96812.63;7394505;19;20010;-67
2023/08/02 05:56:50;;;;;;;0.10;0.00;;;;;;;18.73;100.00;96800.44;7402512;19;20014;-68
2023/08/02 05:59:16;;;;;;;0.10;0.00;;;;;;;18.69;100.00;96797.38;7403266;19;20463;-67
2023/08/02 06:01:42;;;;;;;0.10;0.10;;;;;;;18.72;100.00;96801.06;7398336;19;20010;-66
2023/08/02 06:04:08;;;;;;;4.38;0.20;;;;;;;18.70;100.00;96796.03;7402467;19;20015;-67
2023/08/02 06:06:34;;;;;;;6.22;0.30;;;;;;;18.71;100.00;96791.16;7397853;19;20388;-66
2023/08/02 06:09:01;;;;;;;0.10;0.05;;;;;;;18.83;100.00;96786.28;7399066;19;20010;-67
2023/08/02 06:11:27;;;;;;;0.10;0.00;;;;;;;18.83;100.00;96780.66;7397296;19;20015;-66
2023/08/02 06:13:53;;;;;;;0.10;0.00;;;;;;;18.85;100.00;96789.25;7396818;19;20034;-66
2023/08/02 06:16:19;;;;;;;0.20;0.20;;;;;;;18.81;100.00;96786.91;7400996;19;20481;-66
2023/08/02 06:18:45;;;;;;;0.30;0.00;;;;;;;18.88;100.00;96783.13;7399528;19;20014;-66
2023/08/02 06:21:11;;;;;;;0.00;0.00;;;;;;;19.03;100.00;96781.97;7399528;19;20041;-66
2023/08/02 06:23:37;;;;;;;0.00;0.00;;;;;;;18.75;100.00;96775.22;7402132;19;20010;-67
2023/08/02 06:26:03;;;;;;;0.10;0.00;;;;;;;19.08;100.00;96783.69;7402118;19;20054;-67
2023/08/02 06:28:30;;;;;;;0.10;0.00;;;;;;;19.01;100.00;96773.38;7402169;19;20014;-67
2023/08/02 06:30:56;;;;;;;0.08;0.00;;;;;;;19.04;100.00;96777.78;7399326;19;20010;-67
2023/08/02 06:33:22;;;;;;;0.00;0.00;;;;;;;19.25;100.00;96772.06;7400105;19;20010;-67
2023/08/02 06:35:48;;;;;;;0.05;0.00;;;;;;;18.95;100.00;96775.06;7398585;19;20621;-67
2023/08/02 06:38:14;;;;;;;0.00;0.00;;;;;;;19.24;100.00;96779.09;7398691;19;20033;-69
2023/08/02 06:40:40;;;;;;;0.00;0.00;;;;;;;19.18;100.00;96764.59;7402408;19;20013;-69
2023/08/02 06:43:06;;;;;;;0.00;0.00;;;;;;;19.55;100.00;96762.00;7398102;19;20017;-70
2023/08/02 06:45:32;;;;;;;0.10;0.10;;;;;;;19.82;100.00;96767.16;7398329;19;20039;-71
2023/08/02 06:47:58;;;;;;;0.10;0.00;;;;;;;19.30;100.00;96771.00;7397956;19;20025;-70
2023/08/02 06:50:25;;;;;;;0.10;0.00;;;;;;;19.23;100.00;96760.66;7397938;19;20010;-69
2023/08/02 06:52:51;;;;;;;0.00;0.00;;;;;;;19.55;100.00;96762.75;7397735;19;20006;-70
2023/08/02 06:55:18;;;;;;;0.00;0.00;;;;;;;19.30;100.00;96762.53;7398945;19;20021;-70
2023/08/02 06:57:44;;;;;;;0.00;0.00;;;;;;;19.25;100.00;96766.44;7396182;19;20011;-69
2023/08/02 07:00:10;;;;;;;0.05;0.00;;;;;;;19.18;100.00;96764.59;7398272;19;20020;-69
2023/08/02 07:02:36;;;;;;;0.00;0.00;;;;;;;19.55;100.00;96768.38;7399982;19;20062;-69
2023/08/02 07:05:03;;;;;;;0.80;0.80;;;;;;;20.37;100.00;96763.47;7396712;19;20039;-71
2023/08/02 07:07:29;;;;;;;0.10;0.00;;;;;;;20.28;100.00;96765.09;7395169;19;20018;-71
2023/08/02 07:09:55;;;;;;;0.05;0.00;;;;;;;19.73;100.00;96765.22;7395804;19;20094;-70
2023/08/02 07:12:21;;;;;;;0.00;0.00;;;;;;;20.14;100.00;96760.66;7396491;19;20007;-70
2023/08/02 07:14:48;;;;;;;0.10;0.10;;;;;;;19.72;100.00;96760.91;7399834;19;20015;-70
2023/08/02 07:17:14;;;;;;;0.00;0.00;;;;;;;19.86;100.00;96759.66;7395870;19;20010;-70
2023/08/02 07:19:40;;;;;;;0.20;0.10;;;;;;;19.78;100.00;96762.00;7397434;19;20027;-70
2023/08/02 07:22:06;;;;;;;0.05;0.00;;;;;;;19.84;100.00;96765.19;7399949;19;20003;-70
2023/08/02 07:24:32;;;;;;;0.00;0.00;;;;;;;23.78;100.00;96757.34;7397670;19;20058;-69
2023/08/02 07:26:58;;;;;;;0.10;0.10;;;;;;;26.46;100.00;96756.19;7399061;19;20482;-68
2023/08/02 07:29:25;;;;;;;0.10;0.10;;;;;;;21.29;100.00;96762.38;7402151;19;20011;-68
2023/08/02 07:31:51;;;;;;;0.57;0.10;;;;;;;30.57;100.00;96748.94;7397729;19;20003;-69
2023/08/02 07:34:18;;;;;;;0.10;0.10;;;;;;;21.20;100.00;96765.41;7397436;19;20018;-71
2023/08/02 07:36:44;;;;;;;0.00;0.00;;;;;;;29.81;100.00;96748.06;7395824;19;20454;-70
2023/08/02 07:39:10;;;;;;;0.00;0.00;;;;;;;26.77;100.00;96759.47;7400124;19;20066;-71
2023/08/02 07:41:36;;;;;;;0.00;0.00;;;;;;;35.87;72.39;96744.16;7394871;19;20024;-69
2023/08/02 07:44:03;;;;;;;0.13;0.03;;;;;;;27.56;100.00;96750.59;7396794;19;20022;-65
2023/08/02 07:46:29;;;;;;;0.10;0.00;;;;;;;23.30;100.00;96744.44;7396292;19;20039;-65
2023/08/02 07:48:55;;;;;;;0.00;0.00;;;;;;;25.96;100.00;96732.25;7395372;19;20431;-65
2023/08/02 07:51:21;;;;;;;0.10;0.00;;;;;;;32.34;94.80;96725.06;7397648;19;20010;-64
2023/08/02 07:53:48;;;;;;;0.57;0.10;;;;;;;26.01;100.00;96734.59;7394626;19;20026;-65
2023/08/02 07:56:15;;;;;;;0.85;0.35;;;;;;;31.10;100.00;96726.91;7398070;19;20010;-65
2023/08/02 07:58:41;;;;;;;0.57;0.10;;;;;;;24.27;100.00;96733.97;7393798;19;20027;-64
2023/08/02 08:01:08;;;;;;;0.10;0.00;;;;;;;27.30;100.00;96732.63;7395961;19;20014;-65
2023/08/02 08:03:35;;;;;;;0.73;0.10;;;;;;;22.76;100.00;96732.59;7396561;19;20018;-64
2023/08/02 08:06:14;;;;;;;0.10;0.00;;;;;;;22.26;100.00;96739.97;7395855;19;20018;-64
2023/08/02 08:08:41;;;;;;;4.05;0.20;;;;;;;36.77;80.43;96723.53;7393395;19;20022;-64
2023/08/02 08:11:08;;;;;;;0.00;0.00;;;;;;;25.92;100.00;96732.84;7395393;19;20070;-64
2023/08/02 08:13:34;;;;;;;0.20;0.20;;;;;;;24.69;100.00;96741.44;7398012;19;20011;-65
2023/08/02 08:16:01;;;;;;;0.00;0.00;;;;;;;24.92;100.00;96740.28;7394857;19;20341;-64
2023/08/02 08:18:30;;;;;;;0.00;0.00;;;;;;;24.30;100.00;96741.22;7392671;19;20010;-65
2023/08/02 08:20:57;;;;;;;0.00;0.00;;;;;;;22.89;100.00;96746.72;7396203;19;20451;-64
2023/08/02 08:23:23;;;;;;;0.08;0.00;;;;;;;21.45;100.00;96756.88;7397271;19;20010;-63
2023/08/02 08:25:49;;;;;;;0.10;0.00;;;;;;;20.36;100.00;96761.97;7395601;19;20021;-63
2023/08/02 08:28:15;;;;;;;0.10;0.00;;;;;;;20.12;100.00;96755.59;7391970;19;20364;-64
2023/08/02 08:30:41;;;;;;;0.10;0.10;;;;;;;19.98;100.00;96754.75;7392797;19;20343;-63
2023/08/02 08:33:09;;;;;;;1.70;0.20;;;;;;;19.88;100.00;96756.25;7395743;19;20017;-63
2023/08/02 08:35:35;;;;;;;0.00;0.00;;;;;;;19.82;100.00;96750.22;7393254;19;20066;-65
2023/08/02 08:38:02;;;;;;;0.10;0.10;;;;;;;19.93;100.00;96755.13;7396716;19;20014;-66
2023/08/02 08:40:29;;;;;;;0.57;0.20;;;;;;;19.88;100.00;96747.78;7394511;19;20399;-65
2023/08/02 08:42:56;;;;;;;0.00;0.00;;;;;;;19.97;100.00;96749.72;7395343;19;20014;-65
2023/08/02 08:45:23;;;;;;;0.10;0.00;;;;;;;20.53;100.00;96744.59;7394891;19;20014;-65
2023/08/02 08:47:51;;;;;;;3.40;0.57;;;;;;;19.97;100.00;96746.88;7395728;19;20017;-64
2023/08/02 08:50:19;;;;;;;2.20;0.10;;;;;;;20.03;100.00;96758.56;7392536;19;20007;-64
2023/08/02 08:52:47;;;;;;;0.73;0.10;;;;;;;21.77;100.00;96750.88;7395126;19;20018;-64
2023/08/02 08:55:15;;;;;;;1.75;0.30;;;;;;;21.21;100.00;96749.88;7397997;19;20021;-63
2023/08/02 08:57:42;;;;;;;0.05;0.00;;;;;;;21.54;100.00;96750.31;7394997;19;20091;-63
2023/08/02 09:00:09;;;;;;;2.58;0.05;;;;;;;21.78;100.00;96748.78;7397928;19;20014;-63
2023/08/02 09:02:39;;;;;;;1.85;0.20;;;;;;;23.52;100.00;96753.31;7397806;19;20035;-62
2023/08/02 09:05:06;;;;;;;0.00;0.00;;;;;;;20.70;100.00;96747.03;7396265;19;20467;-62
2023/08/02 09:07:32;;;;;;;0.00;0.00;;;;;;;20.81;100.00;96754.00;7397518;19;20562;-63
2023/08/02 09:09:58;;;;;;;1.42;0.28;;;;;;;20.34;100.00;96750.56;7396000;19;20019;-62
2023/08/02 09:12:24;;;;;;;0.00;0.00;;;;;;;20.69;100.00;96751.19;7393154;19;20014;-62
2023/08/02 09:15:02;;;;;;;3.88;0.13;;;;;;;20.99;100.00;96758.59;7393060;19;20039;-62
2023/08/02 09:17:46;;;;;;;0.00;0.00;;;;;;;21.37;100.00;96745.13;7392800;19;20082;-62
2023/08/02 09:20:12;;;;;;;0.00;0.00;;;;;;;21.61;100.00;96747.16;7393361;19;20007;-62
2023/08/02 09:22:39;;;;;;;0.20;0.08;;;;;;;21.76;100.00;96737.34;7395440;19;20033;-64
2023/08/02 09:25:08;;;;;;;0.00;0.00;;;;;;;21.99;100.00;96733.59;7394129;19;20063;-64
2023/08/02 09:27:34;;;;;;;0.20;0.10;;;;;;;22.21;100.00;96738.31;7393690;19;20015;-64
2023/08/02 09:30:00;;;;;;;0.30;0.10;;;;;;;22.69;100.00;96733.66;7395454;19;20454;-64
2023/08/02 09:32:27;;;;;;;0.00;0.00;;;;;;;23.04;100.00;96733.97;7399205;19;20518;-64
2023/08/02 09:35:00;;;;;;;0.20;0.20;;;;;;;23.14;100.00;96732.34;7401358;19;20019;-64
2023/08/02 09:37:35;;;;;;;2.08;0.10;;;;;;;23.20;100.00;96731.88;7398369;19;20477;-64
2023/08/02 09:40:09;;;;;;;0.00;0.00;;;;;;;23.01;100.00;96729.56;7401857;19;20017;-63
2023/08/02 09:42:35;;;;;;;0.00;0.00;;;;;;;22.73;100.00;96728.91;7400700;19;20018;-64
2023/08/02 09:45:06;;;;;;;0.00;0.00;;;;;;;22.48;100.00;96726.94;7401172;19;20038;-65
2023/08/02 09:47:32;;;;;;;;;;;;;;;22.66;100.00;96723.56;7402607;19;20447;-64
2023/08/02 09:50:04;;;;;;;0.25;0.00;;;;;;;22.39;100.00;96733.56;7400838;19;19918;-65
2023/08/02 09:52:30;;;;;;;0.82;0.00;;;;;;;22.47;100.00;96724.75;7399007;19;20339;-65
2023/08/02 09:54:57;;;;;;;12.05;0.20;;;;;;;22.55;100.00;96723.03;7399465;19;20505;-65
2023/08/02 10:00:07;;;;;;;0.00;0.00;;;;;;;22.20;100.00;96719.13;7400073;19;20007;-59
2023/08/02 10:02:45;;;;;;;0.00;0.00;;;;;;;22.95;100.00;96717.91;7396860;19;20084;-59
2023/08/02 10:05:13;;;;;;;0.00;0.00;;;;;;;23.92;100.00;96715.38;7393156;19;20007;-59
2023/08/02 10:07:46;;;;;;;0.30;0.00;;;;;;;22.96;100.00;96713.69;7394695;19;20019;-60
2023/08/02 10:10:21;;;;;;;0.10;0.10;;;;;;;23.61;100.00;96711.78;7393373;19;20451;-60
2023/08/02 10:12:59;;;;;;;0.00;0.00;;;;;;;26.08;100.00;96712.72;7392960;19;20051;-59
2023/08/02 10:15:26;;;;;;;0.50;0.17;;;;;;;24.86;100.00;96712.31;7391547;19;20014;-59
2023/08/02 10:17:54;;;;;;;0.00;0.00;;;;;;;26.49;100.00;96707.06;7393210;19;20689;-59
2023/08/02 10:20:21;;;;;;;0.00;0.00;;;;;;;27.30;100.00;96709.75;7396173;19;20027;-60
2023/08/02 10:22:48;;;;;;;0.00;0.00;;;;;;;30.07;100.00;96704.09;7398010;19;20010;-60
2023/08/02 10:25:17;;;;;;;0.10;0.10;;;;;;;36.67;84.06;96697.47;7396053;19;20026;-60
2023/08/02 10:27:45;;;;;;;1.88;0.47;;;;;;;32.31;89.44;96703.44;7397859;19;20382;-61
2023/08/02 10:30:13;;;;;;;0.10;0.00;;;;;;;26.88;100.00;96715.56;7394577;19;20021;-60
2023/08/02 10:32:39;;;;;;;0.65;0.10;;;;;;;29.00;100.00;96710.28;7395619;19;20070;-60
2023/08/02 10:35:05;;;;;;;0.00;0.00;;;;;;;39.68;61.05;96701.16;7394911;19;20070;-55
2023/08/02 10:37:55;;;;;;;0.10;0.10;;;;;;;35.66;58.29;96700.78;7394156;19;20014;-55
2023/08/02 10:40:22;;;;;;;0.10;0.00;;;;;;;39.97;56.39;96693.31;7397608;19;20017;-55
2023/08/02 10:43:03;;;;;;;0.90;0.10;;;;;;;33.58;62.13;96711.13;7394611;19;20651;-54
2023/08/02 10:45:29;;;;;;;0.93;0.10;;;;;;;28.37;100.00;96711.50;7398396;19;20487;-54
2023/08/02 10:48:25;;;;;;;0.00;0.00;;;;;;;26.93;100.00;96714.31;7399547;19;20032;-54
2023/08/02 10:50:52;;;;;;;0.43;0.30;;;;;;;23.73;100.00;96713.09;7395959;19;20066;-55
2023/08/02 10:53:18;;;;;;;0.10;0.00;;;;;;;22.75;100.00;96712.00;7397905;19;20006;-54
2023/08/02 10:56:04;;;;;;;0.20;0.10;;;;;;;24.41;100.00;96720.34;7400900;19;20386;-55
2023/08/02 10:58:46;;;;;;;0.20;0.00;;;;;;;24.05;100.00;96728.78;7399701;19;20011;-55
2023/08/02 11:01:12;;;;;;;0.10;0.00;;;;;;;22.73;100.00;96717.56;7398774;19;20018;-54
2023/08/02 11:03:39;;;;;;;0.20;0.17;;;;;;;23.11;100.00;96724.34;7396400;19;20354;-54
2023/08/02 11:06:06;;;;;;;0.00;0.00;;;;;;;23.28;100.00;96723.75;7396904;19;20014;-54
2023/08/02 11:08:47;;;;;;;0.10;0.10;;;;;;;21.88;100.00;96724.56;7401509;19;20358;-54
2023/08/02 11:11:13;;;;;;;0.00;0.00;;;;;;;23.38;100.00;96732.78;7398160;19;20035;-55
2023/08/02 11:13:40;;;;;;;0.00;0.00;;;;;;;24.32;100.00;96729.94;7395611;19;20021;-55
2023/08/02 11:16:07;;;;;;;1.65;0.20;;;;;;;24.12;100.00;96726.19;7396870;19;20022;-54
2023/08/02 11:18:34;;;;;;;0.10;0.10;;;;;;;28.24;100.00;96721.16;7398588;19;20021;-54
2023/08/02 11:21:10;;;;;;;0.00;0.00;;;;;;;22.34;100.00;96728.34;7396275;19;20014;-54
2023/08/02 11:23:37;;;;;;;0.00;0.00;;;;;;;22.10;100.00;96733.50;7399192;19;20018;-54
2023/08/02 11:26:11;;;;;;;0.00;0.00;;;;;;;21.56;100.00;96728.50;7398784;19;20019;-54
2023/08/02 11:28:48;;;;;;;0.00;0.00;;;;;;;21.99;100.00;96728.66;7399777;19;20049;-54
2023/08/02 11:31:15;;;;;;;0.00;0.00;;;;;;;22.42;100.00;96734.41;7396429;19;20006;-54
2023/08/02 11:33:42;;;;;;;0.10;0.00;;;;;;;22.17;100.00;96729.63;7395336;19;20022;-54